createdAt,value
2022-07-26T00:01:01.698Z,0.80
2022-07-26T00:03:29.733Z,0.98
2022-07-26T00:05:59.115Z,0.90
2022-07-26T00:08:27.031Z,1.10
2022-07-26T00:10:54.960Z,1.00
2022-07-26T00:13:23.026Z,0.80
2022-07-26T00:15:51.119Z,1.00
2022-07-26T00:18:19.228Z,0.98
2022-07-26T00:20:48.126Z,1.00
2022-07-26T00:23:19.364Z,0.90
2022-07-26T00:25:47.419Z,1.00
2022-07-26T00:28:15.410Z,1.00
2022-07-26T00:30:43.452Z,1.00
2022-07-26T00:33:11.402Z,0.90
2022-07-26T00:35:39.388Z,1.10
2022-07-26T00:38:07.359Z,0.90
2022-07-26T00:40:37.772Z,1.10
2022-07-26T00:43:05.733Z,1.10
2022-07-26T00:45:34.798Z,0.95
2022-07-26T00:48:02.690Z,1.00
2022-07-26T00:50:30.638Z,0.80
2022-07-26T00:52:58.554Z,1.00
2022-07-26T00:55:26.540Z,0.98
2022-07-26T00:57:55.833Z,0.80
2022-07-26T01:00:26.446Z,0.80
2022-07-26T01:02:54.464Z,0.80
2022-07-26T01:05:23.071Z,3.72
2022-07-26T01:07:51.040Z,0.93
2022-07-26T01:10:18.964Z,0.90
2022-07-26T01:12:47.113Z,0.93
2022-07-26T01:15:16.655Z,0.90
2022-07-26T01:17:44.705Z,1.10
2022-07-26T01:20:13.439Z,1.02
2022-07-26T01:22:42.773Z,1.00
2022-07-26T01:25:11.033Z,1.10
2022-07-26T01:27:40.137Z,1.00
2022-07-26T01:30:10.499Z,0.90
2022-07-26T01:32:38.704Z,1.00
2022-07-26T01:35:08.248Z,0.93
2022-07-26T01:37:36.186Z,1.00
2022-07-26T01:40:07.230Z,0.90
2022-07-26T01:42:35.732Z,1.00
2022-07-26T01:45:03.773Z,0.98
2022-07-26T01:47:32.003Z,0.98
2022-07-26T01:50:00.018Z,1.00
2022-07-26T01:52:28.333Z,1.02
2022-07-26T01:54:56.318Z,1.10
2022-07-26T01:57:25.681Z,0.95
2022-07-26T01:59:55.522Z,0.80
2022-07-26T02:02:23.536Z,1.00
2022-07-26T02:05:00.415Z,0.90
2022-07-26T02:07:28.523Z,1.00
2022-07-26T02:09:56.582Z,0.90
2022-07-26T02:12:27.401Z,1.00
2022-07-26T02:14:55.422Z,1.17
2022-07-26T02:17:23.406Z,0.90
2022-07-26T02:19:52.312Z,0.80
2022-07-26T02:22:20.557Z,1.05
2022-07-26T02:24:48.569Z,0.80
2022-07-26T02:27:16.658Z,0.98
2022-07-26T02:29:45.969Z,1.00
2022-07-26T02:32:13.957Z,1.00
2022-07-26T02:34:41.954Z,1.00
2022-07-26T02:37:09.896Z,1.15
2022-07-26T02:39:37.899Z,1.02
2022-07-26T02:42:06.028Z,0.95
2022-07-26T02:44:34.830Z,0.77
2022-07-26T02:47:05.190Z,1.00
2022-07-26T02:49:33.211Z,1.10
2022-07-26T02:52:01.213Z,0.90
2022-07-26T02:54:29.274Z,1.00
2022-07-26T02:56:57.246Z,1.00
2022-07-26T02:59:25.192Z,1.00
2022-07-26T03:01:53.189Z,0.98
2022-07-26T03:04:22.491Z,0.98
2022-07-26T03:06:50.428Z,0.90
2022-07-26T03:09:18.388Z,0.90
2022-07-26T03:11:46.364Z,1.00
2022-07-26T03:14:14.354Z,0.95
2022-07-26T03:16:42.310Z,1.10
2022-07-26T03:19:10.197Z,1.17
2022-07-26T03:21:39.578Z,1.08
2022-07-26T03:24:08.256Z,1.00
2022-07-26T03:26:36.570Z,1.10
2022-07-26T03:29:04.461Z,1.00
2022-07-26T03:31:32.433Z,0.85
2022-07-26T03:34:03.343Z,0.95
2022-07-26T03:36:31.541Z,0.90
2022-07-26T03:39:00.827Z,1.02
2022-07-26T03:41:31.504Z,1.30
2022-07-26T03:43:59.441Z,1.00
2022-07-26T03:46:27.503Z,0.90
2022-07-26T03:48:55.663Z,1.10
2022-07-26T03:51:23.674Z,0.93
2022-07-26T03:53:51.631Z,0.90
2022-07-26T03:56:29.116Z,1.00
2022-07-26T03:58:57.214Z,1.20
2022-07-26T04:01:25.183Z,0.90
2022-07-26T04:03:53.369Z,1.03
2022-07-26T04:06:23.259Z,0.98
2022-07-26T04:08:51.306Z,1.10
2022-07-26T04:11:20.687Z,1.00
2022-07-26T04:13:48.660Z,1.10
2022-07-26T04:16:16.659Z,1.25
2022-07-26T04:18:44.669Z,3.08
2022-07-26T04:21:12.614Z,1.27
2022-07-26T04:23:40.587Z,1.30
2022-07-26T04:26:08.597Z,1.30
2022-07-26T04:28:37.983Z,1.13
2022-07-26T04:31:06.068Z,1.30
2022-07-26T04:33:34.167Z,1.30
2022-07-26T04:36:02.148Z,1.40
2022-07-26T04:38:30.091Z,1.10
2022-07-26T04:40:58.091Z,0.98
2022-07-26T04:43:26.104Z,1.13
2022-07-26T04:45:57.345Z,1.65
2022-07-26T04:48:25.333Z,1.10
2022-07-26T04:50:53.297Z,1.10
2022-07-26T04:53:21.599Z,1.35
2022-07-26T04:55:49.542Z,1.20
2022-07-26T04:58:17.492Z,1.00
2022-07-26T05:01:08.927Z,1.10
2022-07-26T05:03:37.434Z,1.00
2022-07-26T05:06:05.721Z,1.20
2022-07-26T05:08:33.713Z,1.30
2022-07-26T05:11:01.638Z,1.00
2022-07-26T05:13:30.863Z,1.20
2022-07-26T05:16:00.244Z,1.20
2022-07-26T05:18:29.402Z,1.00
2022-07-26T05:21:01.737Z,1.10
2022-07-26T05:23:29.633Z,1.17
2022-07-26T05:25:57.586Z,1.20
2022-07-26T05:28:25.583Z,1.10
2022-07-26T05:30:53.555Z,1.15
2022-07-26T05:33:21.549Z,1.10
2022-07-26T05:35:49.509Z,1.00
2022-07-26T05:38:18.784Z,1.40
2022-07-26T05:40:50.455Z,1.10
2022-07-26T05:43:19.144Z,1.10
2022-07-26T05:45:47.183Z,1.25
2022-07-26T05:48:15.177Z,1.20
2022-07-26T05:50:43.147Z,1.10
2022-07-26T05:53:11.048Z,1.23
2022-07-26T05:55:40.322Z,1.20
2022-07-26T05:58:08.209Z,1.15
2022-07-26T06:00:36.165Z,1.15
2022-07-26T06:03:21.964Z,1.45
2022-07-26T06:05:50.144Z,1.30
2022-07-26T06:08:18.227Z,1.25
2022-07-26T06:10:47.594Z,1.25
2022-07-26T06:13:16.211Z,1.40
2022-07-26T06:15:44.764Z,1.30
2022-07-26T06:18:12.822Z,1.50
2022-07-26T06:20:40.943Z,1.85
2022-07-26T06:23:08.942Z,1.40
2022-07-26T06:25:36.878Z,1.40
2022-07-26T06:28:07.730Z,1.43
2022-07-26T06:30:35.965Z,1.50
2022-07-26T06:33:04.094Z,1.40
2022-07-26T06:35:32.236Z,1.20
2022-07-26T06:38:00.753Z,1.35
2022-07-26T06:40:28.717Z,1.23
2022-07-26T06:42:58.946Z,1.52
2022-07-26T06:45:33.053Z,1.42
2022-07-26T06:48:01.064Z,1.30
2022-07-26T06:50:29.092Z,1.35
2022-07-26T06:52:57.039Z,1.30
2022-07-26T06:55:25.129Z,1.30
2022-07-26T06:57:53.103Z,1.30
2022-07-26T07:00:21.077Z,1.50
2022-07-26T07:02:50.531Z,1.50
2022-07-26T07:05:18.598Z,1.40
2022-07-26T07:07:46.778Z,1.20
2022-07-26T07:10:16.090Z,1.20
2022-07-26T07:12:44.860Z,1.30
2022-07-26T07:15:12.894Z,1.20
2022-07-26T07:17:40.875Z,1.10
2022-07-26T07:20:11.359Z,2.17
2022-07-26T07:22:39.330Z,1.13
2022-07-26T07:25:07.688Z,3.03
2022-07-26T07:27:36.576Z,1.27
2022-07-26T07:30:05.089Z,1.10
2022-07-26T07:32:33.299Z,1.50
2022-07-26T07:35:03.099Z,1.20
2022-07-26T07:37:53.071Z,1.47
2022-07-26T07:40:22.110Z,1.50
2022-07-26T07:42:50.634Z,1.30
2022-07-26T07:45:18.802Z,1.20
2022-07-26T07:47:46.696Z,1.40
2022-07-26T07:50:14.648Z,1.40
2022-07-26T07:52:43.991Z,1.50
2022-07-26T07:55:36.412Z,1.30
2022-07-26T07:57:59.935Z,1.27
2022-07-26T08:00:27.885Z,1.20
2022-07-26T08:02:55.854Z,1.20
2022-07-26T08:05:23.756Z,1.40
2022-07-26T08:07:54.247Z,1.55
2022-07-26T08:10:22.231Z,1.50
2022-07-26T08:12:51.207Z,1.77
2022-07-26T08:15:19.758Z,1.40
2022-07-26T08:17:54.750Z,1.43
2022-07-26T08:20:24.898Z,1.30
2022-07-26T08:22:54.513Z,1.50
2022-07-26T08:25:22.646Z,1.38
2022-07-26T08:28:03.233Z,1.50
2022-07-26T08:30:31.874Z,1.20
2022-07-26T08:32:59.877Z,1.40
2022-07-26T08:35:29.474Z,1.30
2022-07-26T08:37:58.856Z,1.37
2022-07-26T08:40:26.806Z,1.40
2022-07-26T08:42:56.169Z,2.17
2022-07-26T08:45:24.160Z,3.23
2022-07-26T08:48:16.053Z,1.37
2022-07-26T08:50:40.907Z,1.20
2022-07-26T08:53:11.954Z,1.70
2022-07-26T08:56:05.493Z,1.37
2022-07-26T08:58:27.823Z,1.57
2022-07-26T09:01:08.107Z,1.30
2022-07-26T09:03:37.836Z,1.20
2022-07-26T09:06:13.487Z,2.23
2022-07-26T09:08:42.907Z,1.20
2022-07-26T09:11:30.367Z,1.30
2022-07-26T09:13:59.231Z,1.45
2022-07-26T09:16:27.286Z,1.10
2022-07-26T09:18:55.377Z,1.20
2022-07-26T09:21:31.014Z,1.53
2022-07-26T09:24:00.638Z,1.43
2022-07-26T09:26:29.084Z,1.85
2022-07-26T09:29:04.958Z,1.33
2022-07-26T09:31:33.118Z,1.23
2022-07-26T09:34:01.128Z,1.30
2022-07-26T09:36:29.147Z,1.40
2022-07-26T09:38:59.012Z,1.33
2022-07-26T09:41:29.041Z,1.20
2022-07-26T09:43:59.996Z,1.40
2022-07-26T09:46:28.154Z,1.20
2022-07-26T09:49:12.329Z,1.40
2022-07-26T09:51:41.318Z,1.30
2022-07-26T09:54:10.065Z,1.80
2022-07-26T09:56:47.750Z,1.30
2022-07-26T09:59:16.583Z,2.07
2022-07-26T10:01:44.788Z,1.37
2022-07-26T10:04:13.255Z,1.30
2022-07-26T10:06:41.972Z,0.97
2022-07-26T10:09:09.942Z,1.20
2022-07-26T10:11:41.882Z,1.13
2022-07-26T10:14:39.587Z,1.13
2022-07-26T10:17:42.077Z,1.25
2022-07-26T10:20:17.348Z,1.00
2022-07-26T10:22:52.661Z,1.52
2022-07-26T10:25:45.794Z,3.83
2022-07-26T10:28:24.822Z,1.05
2022-07-26T10:30:54.765Z,1.20
2022-07-26T10:33:23.570Z,1.48
2022-07-26T10:35:51.690Z,1.20
2022-07-26T10:38:24.930Z,1.40
2022-07-26T10:41:00.393Z,1.95
2022-07-26T10:43:44.243Z,1.33
2022-07-26T10:46:28.062Z,1.23
2022-07-26T10:48:57.115Z,1.10
2022-07-26T10:51:25.960Z,1.00
2022-07-26T10:54:00.979Z,1.10
2022-07-26T10:56:33.088Z,1.63
2022-07-26T10:59:01.913Z,1.15
2022-07-26T11:01:35.424Z,1.10
2022-07-26T11:04:03.445Z,1.20
2022-07-26T11:06:31.432Z,1.20
2022-07-26T11:08:59.435Z,1.23
2022-07-26T11:11:31.290Z,1.50
2022-07-26T11:14:07.036Z,1.30
2022-07-26T11:16:40.547Z,1.20
2022-07-26T11:19:18.448Z,1.73
2022-07-26T11:21:46.996Z,1.50
2022-07-26T11:24:15.308Z,1.07
2022-07-26T11:26:43.627Z,1.10
2022-07-26T11:29:17.003Z,1.20
2022-07-26T11:31:51.389Z,1.03
2022-07-26T11:34:28.665Z,1.20
2022-07-26T11:36:57.759Z,2.53
2022-07-26T11:39:26.433Z,1.05
2022-07-26T11:41:58.055Z,1.10
2022-07-26T11:44:26.005Z,0.90
2022-07-26T11:46:57.588Z,1.10
2022-07-26T11:49:51.676Z,1.10
2022-07-26T11:52:14.665Z,1.25
2022-07-26T11:54:46.755Z,1.00
2022-07-26T11:57:14.862Z,1.10
2022-07-26T11:59:42.848Z,1.13
2022-07-26T12:02:13.550Z,1.00
2022-07-26T12:04:42.251Z,1.10
2022-07-26T12:07:10.784Z,1.10
2022-07-26T12:09:39.721Z,1.10
2022-07-26T12:12:09.039Z,1.27
2022-07-26T12:14:38.054Z,1.10
2022-07-26T12:17:14.563Z,1.20
2022-07-26T12:19:42.566Z,1.10
2022-07-26T12:22:12.260Z,1.30
2022-07-26T12:24:43.426Z,1.30
2022-07-26T12:27:13.166Z,1.30
2022-07-26T12:29:41.882Z,1.20
2022-07-26T12:32:12.759Z,1.20
2022-07-26T12:34:43.125Z,1.40
2022-07-26T12:37:12.615Z,1.20
2022-07-26T12:39:40.825Z,1.90
2022-07-26T12:42:33.316Z,1.20
2022-07-26T12:45:03.008Z,1.10
2022-07-26T12:47:31.012Z,1.55
2022-07-26T12:50:01.292Z,1.33
2022-07-26T12:52:29.301Z,1.85
2022-07-26T12:54:57.247Z,1.30
2022-07-26T12:57:25.224Z,1.33
2022-07-26T12:59:53.204Z,1.57
2022-07-26T13:02:21.282Z,1.30
2022-07-26T13:04:49.307Z,6.63
2022-07-26T13:07:19.165Z,0.97
2022-07-26T13:09:47.400Z,1.17
2022-07-26T13:12:15.881Z,1.30
2022-07-26T13:14:43.816Z,1.20
2022-07-26T13:17:11.907Z,1.10
2022-07-26T13:19:40.227Z,1.00
2022-07-26T13:22:08.596Z,1.20
2022-07-26T13:24:39.441Z,1.20
2022-07-26T13:27:09.208Z,1.20
2022-07-26T13:29:37.682Z,1.07
2022-07-26T13:32:06.279Z,1.33
2022-07-26T13:34:35.168Z,1.13
2022-07-26T13:37:08.286Z,1.10
2022-07-26T13:39:37.978Z,1.17
2022-07-26T13:42:06.421Z,1.20
2022-07-26T13:44:34.446Z,1.50
2022-07-26T13:47:02.671Z,1.43
2022-07-26T13:49:30.913Z,1.23
2022-07-26T13:51:59.055Z,1.13
2022-07-26T13:54:28.776Z,1.10
2022-07-26T13:56:58.270Z,1.33
2022-07-26T13:59:26.281Z,1.20
2022-07-26T14:01:54.492Z,1.30
2022-07-26T14:04:22.667Z,1.40
2022-07-26T14:06:50.828Z,1.03
2022-07-26T14:09:19.322Z,1.00
2022-07-26T14:11:47.255Z,1.30
2022-07-26T14:14:16.556Z,1.10
2022-07-26T14:16:48.082Z,1.17
2022-07-26T14:19:17.497Z,1.10
2022-07-26T14:21:48.961Z,1.07
2022-07-26T14:24:28.650Z,1.00
2022-07-26T14:26:59.247Z,1.17
2022-07-26T14:29:29.328Z,1.10
2022-07-26T14:31:57.546Z,1.10
2022-07-26T14:34:25.713Z,0.90
2022-07-26T14:36:53.658Z,1.07
2022-07-26T14:39:21.607Z,1.17
2022-07-26T14:41:49.557Z,1.07
2022-07-26T14:44:17.558Z,1.10
2022-07-26T14:46:46.879Z,1.30
2022-07-26T14:49:15.053Z,0.90
2022-07-26T14:51:43.076Z,1.13
2022-07-26T14:54:11.515Z,1.10
2022-07-26T14:56:39.815Z,1.00
2022-07-26T14:59:07.920Z,1.10
2022-07-26T15:01:35.990Z,1.00
2022-07-26T15:04:05.719Z,1.10
2022-07-26T15:06:33.689Z,1.10
2022-07-26T15:09:01.644Z,1.30
2022-07-26T15:11:29.617Z,1.00
2022-07-26T15:14:00.280Z,0.90
2022-07-26T15:16:32.093Z,0.90
2022-07-26T15:19:00.192Z,1.00
2022-07-26T15:21:29.501Z,0.90
2022-07-26T15:23:57.464Z,1.00
2022-07-26T15:26:25.434Z,1.07
2022-07-26T15:28:53.374Z,0.90
2022-07-26T15:31:21.445Z,0.90
2022-07-26T15:33:49.442Z,1.30
2022-07-26T15:36:17.378Z,0.90
2022-07-26T15:38:48.003Z,1.00
2022-07-26T15:41:16.008Z,1.03
2022-07-26T15:43:48.747Z,0.90
2022-07-26T15:46:17.285Z,0.93
2022-07-26T15:48:46.120Z,1.30
2022-07-26T15:51:15.553Z,1.00
2022-07-26T15:53:46.463Z,1.10
2022-07-26T15:56:16.151Z,1.03
2022-07-26T15:58:46.321Z,1.00
2022-07-26T16:01:14.547Z,1.10
2022-07-26T16:03:42.537Z,1.07
2022-07-26T16:06:10.520Z,1.10
2022-07-26T16:08:52.718Z,1.30
2022-07-26T16:11:28.203Z,1.80
2022-07-26T16:14:01.247Z,1.20
2022-07-26T16:16:30.487Z,2.95
2022-07-26T16:18:58.669Z,4.07
2022-07-26T16:21:26.641Z,1.20
2022-07-26T16:23:54.623Z,1.03
2022-07-26T16:26:23.417Z,1.20
2022-07-26T16:28:53.105Z,2.83
2022-07-26T16:31:21.146Z,1.40
2022-07-26T16:33:49.150Z,1.00
2022-07-26T16:36:17.128Z,2.33
2022-07-26T16:38:45.110Z,1.80
2022-07-26T16:41:13.024Z,2.47
2022-07-26T16:43:41.428Z,2.87
2022-07-26T16:46:10.862Z,3.40
2022-07-26T16:48:38.939Z,3.92
2022-07-26T16:51:06.999Z,5.70
2022-07-26T16:53:35.009Z,5.40
2022-07-26T16:56:02.988Z,4.30
2022-07-26T16:58:31.026Z,4.93
2022-07-26T17:00:59.545Z,5.50
2022-07-26T17:03:28.964Z,4.97
2022-07-26T17:05:56.984Z,4.40
2022-07-26T17:08:25.254Z,5.60
2022-07-26T17:10:53.196Z,4.60
2022-07-26T17:13:21.257Z,4.73
2022-07-26T17:15:49.334Z,3.73
2022-07-26T17:18:17.322Z,3.00
2022-07-26T17:20:46.572Z,3.13
2022-07-26T17:23:14.531Z,3.40
2022-07-26T17:25:42.461Z,2.20
2022-07-26T17:28:10.451Z,1.97
2022-07-26T17:30:38.500Z,1.90
2022-07-26T17:33:06.495Z,1.70
2022-07-26T17:35:34.478Z,1.97
2022-07-26T17:38:03.827Z,2.00
2022-07-26T17:40:33.656Z,1.73
2022-07-26T17:43:01.620Z,1.80
2022-07-26T17:45:29.611Z,1.53
2022-07-26T17:47:57.550Z,1.90
2022-07-26T17:50:36.576Z,3.90
2022-07-26T17:53:06.608Z,1.73
2022-07-26T17:55:34.601Z,1.80
2022-07-26T17:58:02.582Z,2.20
2022-07-26T18:00:30.581Z,1.90
2022-07-26T18:02:58.518Z,1.70
2022-07-26T18:05:33.976Z,1.70
2022-07-26T18:08:04.011Z,1.87
2022-07-26T18:10:33.306Z,1.70
2022-07-26T18:13:01.326Z,1.60
2022-07-26T18:15:29.276Z,1.73
2022-07-26T18:17:57.204Z,1.93
2022-07-26T18:20:25.164Z,1.77
2022-07-26T18:22:54.571Z,1.40
2022-07-26T18:25:22.627Z,1.60
2022-07-26T18:27:53.743Z,1.80
2022-07-26T18:30:21.732Z,1.70
2022-07-26T18:32:49.734Z,1.63
2022-07-26T18:35:17.709Z,1.60
2022-07-26T18:37:46.537Z,1.70
2022-07-26T18:40:14.545Z,1.30
2022-07-26T18:42:42.539Z,1.33
2022-07-26T18:45:12.121Z,1.90
2022-07-26T18:47:41.287Z,1.27
2022-07-26T18:50:10.454Z,1.47
2022-07-26T18:52:39.315Z,1.30
2022-07-26T18:55:08.426Z,1.40
2022-07-26T18:57:36.445Z,1.43
2022-07-26T19:00:05.536Z,1.20
2022-07-26T19:02:34.828Z,1.27
2022-07-26T19:05:02.834Z,1.20
2022-07-26T19:07:31.661Z,1.40
2022-07-26T19:09:59.592Z,1.40
2022-07-26T19:12:28.151Z,1.17
2022-07-26T19:14:56.191Z,1.30
2022-07-26T19:17:24.145Z,1.30
2022-07-26T19:19:53.494Z,1.70
2022-07-26T19:22:22.347Z,1.57
2022-07-26T19:24:50.390Z,1.30
2022-07-26T19:27:18.464Z,1.33
2022-07-26T19:29:46.447Z,1.20
2022-07-26T19:32:14.365Z,1.33
2022-07-26T19:34:42.348Z,1.30
2022-07-26T19:37:12.157Z,1.20
2022-07-26T19:39:40.155Z,1.30
2022-07-26T19:42:08.285Z,1.20
2022-07-26T19:44:36.823Z,1.40
2022-07-26T19:47:04.823Z,1.23
2022-07-26T19:49:32.839Z,1.20
2022-07-26T19:52:00.813Z,1.00
2022-07-26T19:54:30.221Z,1.20
2022-07-26T19:56:58.237Z,1.30
2022-07-26T19:59:26.237Z,1.13
2022-07-26T20:01:56.524Z,1.30
2022-07-26T20:04:26.368Z,1.20
2022-07-26T20:06:55.085Z,1.17
2022-07-26T20:09:23.110Z,1.17
2022-07-26T20:11:52.407Z,1.30
2022-07-26T20:14:20.497Z,1.27
2022-07-26T20:16:51.720Z,1.20
2022-07-26T20:19:24.323Z,1.23
2022-07-26T20:21:52.317Z,1.20
2022-07-26T20:24:20.307Z,1.20
2022-07-26T20:26:48.292Z,1.30
2022-07-26T20:29:17.606Z,1.03
2022-07-26T20:31:45.659Z,1.20
2022-07-26T20:34:13.659Z,1.07
2022-07-26T20:36:41.693Z,1.10
2022-07-26T20:39:10.817Z,1.07
2022-07-26T20:41:39.121Z,1.30
2022-07-26T20:44:07.111Z,1.30
2022-07-26T20:46:39.919Z,1.20
2022-07-26T20:49:08.487Z,1.13
2022-07-26T20:51:36.857Z,1.10
2022-07-26T20:54:05.076Z,1.20
2022-07-26T20:56:33.801Z,1.10
2022-07-26T20:59:02.180Z,1.20
2022-07-26T21:01:30.289Z,1.10
2022-07-26T21:03:59.713Z,1.03
2022-07-26T21:06:29.195Z,1.00
2022-07-26T21:08:57.881Z,1.10
2022-07-26T21:11:25.973Z,1.20
2022-07-26T21:13:54.029Z,1.00
2022-07-26T21:16:22.157Z,1.17
2022-07-26T21:18:52.410Z,1.20
2022-07-26T21:21:22.366Z,1.30
2022-07-26T21:23:50.802Z,1.03
2022-07-26T21:26:18.791Z,1.00
2022-07-26T21:28:46.735Z,1.10
2022-07-26T21:31:14.692Z,1.07
2022-07-26T21:33:44.126Z,1.10
2022-07-26T21:36:12.094Z,0.90
2022-07-26T21:38:41.393Z,1.20
2022-07-26T21:41:09.378Z,1.10
2022-07-26T21:43:41.322Z,1.10
2022-07-26T21:46:12.669Z,1.20
2022-07-26T21:48:41.203Z,1.23
2022-07-26T21:51:09.216Z,1.07
2022-07-26T21:53:37.231Z,1.00
2022-07-26T21:56:06.703Z,1.10
2022-07-26T21:58:36.999Z,1.10
2022-07-26T22:01:06.579Z,1.10
2022-07-26T22:03:36.131Z,1.20
2022-07-26T22:06:04.443Z,1.00
2022-07-26T22:08:32.639Z,1.00
2022-07-26T22:11:00.787Z,1.10
2022-07-26T22:13:30.067Z,1.00
2022-07-26T22:15:58.055Z,1.13
2022-07-26T22:18:26.254Z,1.20
2022-07-26T22:20:54.344Z,1.20
2022-07-26T22:23:22.977Z,2.57
2022-07-26T22:25:50.922Z,1.00
2022-07-26T22:28:19.064Z,0.90
2022-07-26T22:30:48.540Z,1.10
2022-07-26T22:33:16.611Z,1.10
2022-07-26T22:35:44.575Z,0.97
2022-07-26T22:38:12.555Z,1.20
2022-07-26T22:40:41.441Z,1.10
2022-07-26T22:43:09.581Z,1.10
2022-07-26T22:45:37.670Z,1.00
2022-07-26T22:48:07.983Z,0.90
2022-07-26T22:50:35.967Z,1.00
2022-07-26T22:53:03.906Z,1.00
2022-07-26T22:55:31.895Z,1.00
2022-07-26T22:57:59.821Z,1.30
2022-07-26T23:00:27.803Z,1.00
2022-07-26T23:02:55.791Z,1.10
2022-07-26T23:05:30.750Z,1.60
2022-07-26T23:08:45.227Z,1.10
2022-07-26T23:11:01.089Z,1.10
2022-07-26T23:13:28.998Z,1.00
2022-07-26T23:16:00.875Z,1.20
2022-07-26T23:18:29.711Z,1.10
2022-07-26T23:20:58.994Z,1.17
2022-07-26T23:23:30.031Z,1.03
2022-07-26T23:25:59.254Z,1.03
2022-07-26T23:28:37.000Z,0.90
2022-07-26T23:31:08.116Z,1.10
2022-07-26T23:33:51.732Z,1.10
2022-07-26T23:36:24.810Z,1.10
2022-07-26T23:38:52.778Z,1.00
2022-07-26T23:41:20.790Z,1.10
2022-07-26T23:43:48.841Z,1.00
2022-07-26T23:46:16.908Z,1.17
2022-07-26T23:48:44.980Z,0.97
2022-07-26T23:51:12.970Z,0.90
2022-07-26T23:53:42.313Z,1.00
2022-07-26T23:56:10.757Z,1.00
2022-07-26T23:58:38.665Z,1.00
